| time (UTC) | temp F | wind direction | speed knots | gust knots | rain 1hr in | rain 24hr in | rain mn in | humidity % | barometer mb |
| 20260505151520 | 74 | 257 | 0.9 | 4.3 | 0.00 | 0.00 | 0.00 | 38 | 1016.0 |
| 20260505124515 | 60 | 31 | 0.9 | 1.7 | 0.00 | 0.00 | 0.00 | 69 | 1015.9 |
| 20260505123028 | 58 | 13 | 0.9 | 2.6 | 0.00 | 0.00 | 0.00 | 71 | 1016.0 |
| 20260505121526 | 56 | 25 | 1.7 | 2.6 | 0.00 | 0.00 | 0.00 | 75 | 1015.9 |
| 20260505120038 | 54 | 1 | 0.0 | 1.7 | 0.00 | 0.00 | 0.00 | 77 | 1015.8 |
| 20260505114505 | 52 | 45 | 0.0 | 1.7 | 0.00 | 0.00 | 0.00 | 81 | 1015.6 |
| 20260505113006 | 49 | 29 | 0.9 | 1.7 | 0.00 | 0.00 | 0.00 | 86 | 1015.4 |
| 20260505111528 | 49 | 7 | 0.0 | 1.7 | 0.00 | 0.00 | 0.00 | 86 | 1015.1 |
| 20260505101506 | 48 | 59 | 0.0 | 0.0 | 0.00 | 0.00 | 0.00 | 86 | 1015.0 |
| 20260505100004 | 48 | 59 | 0.0 | 1.7 | 0.00 | 0.00 | 0.00 | 85 | 1015.0 |
| 20260505094521 | 48 | 15 | 0.0 | 1.7 | 0.00 | 0.00 | 0.00 | 85 | 1015.1 |
| 20260505093022 | 48 | 105 | 0.0 | 0.9 | 0.00 | 0.00 | 0.00 | 84 | 1015.0 |
| 20260505091519 | 49 | 146 | 0.0 | 1.7 | 0.00 | 0.00 | 0.00 | 83 | 1015.0 |
| 20260505090015 | 49 | 166 | 0.0 | 1.7 | 0.00 | 0.00 | 0.00 | 83 | 1015.1 |
| 20260505084513 | 49 | 259 | 0.0 | 0.0 | 0.00 | 0.00 | 0.00 | 84 | 1014.8 |
| 20260505083017 | 49 | 259 | 0.0 | 0.0 | 0.00 | 0.00 | 0.00 | 85 | 1014.7 |
| 20260505081527 | 49 | 259 | 0.0 | 0.0 | 0.00 | 0.00 | 0.00 | 85 | 1014.6 |
| 20260505080033 | 49 | 259 | 0.0 | 0.0 | 0.00 | 0.00 | 0.00 | 85 | 1014.4 |
| 20260505074521 | 49 | 259 | 0.0 | 0.0 | 0.00 | 0.00 | 0.00 | 84 | 1014.2 |
| 20260505073032 | 49 | 259 | 0.0 | 0.0 | 0.00 | 0.00 | 0.00 | 84 | 1014.1 |
| 20260505071512 | 50 | 259 | 0.0 | 0.0 | 0.00 | 0.00 | 0.00 | 85 | 1013.9 |
| 20260505070010 | 50 | 259 | 0.0 | 0.0 | 0.00 | 0.00 | 0.00 | 85 | 1013.7 |
| 20260505064525 | 50 | 259 | 0.0 | 1.7 | 0.00 | 0.00 | 0.00 | 85 | 1013.7 |
| 20260505063032 | 50 | 287 | 0.0 | 1.7 | 0.00 | 0.00 | 0.00 | 84 | 1013.6 |
| 20260505061528 | 51 | 287 | 0.0 | 1.7 | 0.00 | 0.00 | 0.00 | 84 | 1013.7 |
| 20260505060047 | 51 | 287 | 0.0 | 0.9 | 0.00 | 0.00 | 0.00 | 84 | 1013.8 |
| 20260505054519 | 51 | 287 | 0.0 | 1.7 | 0.00 | 0.00 | 0.00 | 83 | 1013.8 |
| 20260505053015 | 52 | 287 | 0.0 | 0.0 | 0.00 | 0.00 | 0.00 | 81 | 1013.9 |
| 20260505051507 | 52 | 287 | 0.0 | 0.0 | 0.00 | 0.00 | 0.00 | 81 | 1013.8 |
| 20260505041520 | 54 | 287 | 0.0 | 1.7 | 0.00 | 0.00 | 0.00 | 77 | 1013.6 |
| 20260505040022 | 55 | 287 | 0.0 | 1.7 | 0.00 | 0.00 | 0.00 | 77 | 1013.7 |
| 20260505034515 | 55 | 287 | 0.0 | 0.0 | 0.00 | 0.00 | 0.00 | 77 | 1013.7 |
| 20260505033026 | 56 | 287 | 0.0 | 0.0 | 0.00 | 0.00 | 0.00 | 77 | 1013.8 |
| 20260505031527 | 57 | 287 | 0.0 | 1.7 | 0.00 | 0.00 | 0.00 | 75 | 1013.9 |
| 20260505030024 | 57 | 287 | 0.0 | 0.0 | 0.00 | 0.00 | 0.00 | 74 | 1014.0 |
| 20260505024524 | 58 | 287 | 0.0 | 0.0 | 0.00 | 0.00 | 0.00 | 73 | 1014.0 |
| 20260505023023 | 59 | 287 | 0.0 | 0.0 | 0.00 | 0.00 | 0.00 | 72 | 1014.0 |
| 20260505021519 | 60 | 287 | 0.0 | 0.0 | 0.00 | 0.00 | 0.00 | 72 | 1013.9 |
| 20260505020034 | 61 | 287 | 0.0 | 1.7 | 0.00 | 0.00 | 0.00 | 70 | 1013.8 |
| 20260505014535 | 61 | 287 | 0.0 | 1.7 | 0.00 | 0.00 | 0.00 | 68 | 1013.7 |
| 20260505013036 | 62 | 287 | 0.0 | 0.9 | 0.00 | 0.00 | 0.00 | 65 | 1013.6 |
| 20260505011534 | 64 | 287 | 0.0 | 1.7 | 0.00 | 0.00 | 0.00 | 63 | 1013.4 |
| 20260505010024 | 65 | 287 | 0.0 | 0.0 | 0.00 | 0.00 | 0.00 | 61 | 1013.4 |
| 20260505004534 | 67 | 287 | 0.0 | 0.0 | 0.00 | 0.00 | 0.00 | 57 | 1013.2 |
| 20260505003036 | 68 | 287 | 0.0 | 0.0 | 0.00 | 0.00 | 0.00 | 55 | 1012.9 |
| 20260505001530 | 70 | 221 | 0.0 | 0.0 | 0.00 | 0.00 | 0.00 | 52 | 1012.8 |
| 20260505000033 | 72 | 221 | 0.0 | 1.7 | 0.00 | 0.00 | 0.00 | 48 | 1012.9 |
| 20260504234527 | 74 | 261 | 0.0 | 1.7 | 0.00 | 0.00 | 0.00 | 43 | 1012.7 |
| 20260504233028 | 76 | 301 | 0.0 | 1.7 | 0.00 | 0.00 | 0.00 | 41 | 1012.6 |
| 20260504231525 | 77 | 17 | 0.9 | 1.7 | 0.00 | 0.00 | 0.00 | 39 | 1012.5 |
| 20260504230022 | 78 | 18 | 0.9 | 4.3 | 0.00 | 0.00 | 0.00 | 38 | 1012.5 |
| 20260504224529 | 78 | 237 | 0.0 | 3.5 | 0.00 | 0.00 | 0.00 | 38 | 1012.5 |
| 20260504223018 | 78 | 334 | 0.0 | 4.3 | 0.00 | 0.00 | 0.00 | 37 | 1012.5 |
| 20260504221515 | 79 | 340 | 0.0 | 2.6 | 0.00 | 0.00 | 0.00 | 38 | 1012.6 |
| 20260504220008 | 78 | 7 | 0.9 | 5.2 | 0.00 | 0.00 | 0.00 | 39 | 1012.6 |
| 20260504214522 | 79 | 17 | 0.0 | 4.3 | 0.00 | 0.00 | 0.00 | 38 | 1012.5 |
| 20260504213029 | 78 | 198 | 0.9 | 4.3 | 0.00 | 0.00 | 0.00 | 38 | 1012.8 |
| 20260504211534 | 78 | 206 | 1.7 | 2.6 | 0.00 | 0.00 | 0.00 | 36 | 1012.8 |
| 20260504210023 | 78 | 307 | 0.9 | 4.3 | 0.00 | 0.00 | 0.00 | 39 | 1012.9 |
| 20260504204520 | 78 | 168 | 1.7 | 4.3 | 0.00 | 0.00 | 0.00 | 38 | 1013.1 |
| 20260504203016 | 77 | 234 | 1.7 | 6.1 | 0.00 | 0.00 | 0.00 | 39 | 1013.2 |
| 20260504201521 | 77 | 238 | 0.9 | 4.3 | 0.00 | 0.00 | 0.00 | 41 | 1013.5 |
| 20260504200009 | 77 | 315 | 2.6 | 7.0 | 0.00 | 0.00 | 0.00 | 40 | 1013.6 |
| 20260504194527 | 77 | 251 | 2.6 | 5.2 | 0.00 | 0.00 | 0.00 | 40 | 1014.0 |
| 20260504193024 | 76 | 1 | 0.9 | 7.0 | 0.00 | 0.00 | 0.00 | 40 | 1014.3 |
| 20260504191522 | 76 | 314 | 1.7 | 4.3 | 0.00 | 0.00 | 0.00 | 41 | 1014.6 |
| 20260504190020 | 76 | 162 | 1.7 | 6.1 | 0.00 | 0.00 | 0.00 | 42 | 1014.9 |
| 20260504184533 | 75 | 308 | 1.7 | 7.0 | 0.00 | 0.00 | 0.00 | 41 | 1015.2 |
| 20260504183012 | 73 | 321 | 0.0 | 2.6 | 0.00 | 0.00 | 0.00 | 43 | 1015.3 |
| 20260504181523 | 73 | 260 | 1.7 | 3.5 | 0.00 | 0.00 | 0.00 | 42 | 1015.6 |
| 20260504180025 | 72 | 284 | 0.9 | 4.3 | 0.00 | 0.00 | 0.00 | 41 | 1015.6 |
| 20260504174524 | 72 | 352 | 0.9 | 6.1 | 0.00 | 0.00 | 0.00 | 41 | 1015.8 |
| 20260504173023 | 71 | 176 | 0.9 | 1.7 | 0.00 | 0.00 | 0.00 | 41 | 1015.8 |
| 20260504171523 | 70 | 215 | 2.6 | 6.1 | 0.00 | 0.00 | 0.00 | 43 | 1015.9 |